Time;durP1;ratioP1;P1;durP2;ratioP2;P2;SDS_P1;SDS_P2;PMS_P1;PMS_P2;Temp;Humidity;BMP_temperature;BMP_pressure;BME280_temperature;BME280_humidity;BME280_pressure;Samples;Min_cycle;Max_cycle;Signal;HPM_P1;HPM_P2
2023/06/25 00:00:55;;;;;;;13.63;11.33;;;;;;;20.66;100.00;92917.69;5052949;28;20220;-79
2023/06/25 00:03:20;;;;;;;12.50;11.40;;;;;;;20.48;100.00;92920.91;5049410;28;20225;-78
2023/06/25 00:05:45;;;;;;;12.63;11.63;;;;;;;20.63;100.00;92921.03;5057084;28;20260;-79
2023/06/25 00:08:11;;;;;;;12.13;10.73;;;;;;;20.62;100.00;92921.34;5049581;28;20330;-78
2023/06/25 00:10:36;;;;;;;12.30;10.83;;;;;;;20.73;100.00;92925.88;5049105;28;20234;-79
2023/06/25 00:13:02;;;;;;;11.47;10.57;;;;;;;20.87;100.00;92927.41;5050571;28;20200;-78
2023/06/25 00:15:28;;;;;;;11.53;10.40;;;;;;;20.88;100.00;92913.03;5050519;28;20224;-78
2023/06/25 00:17:54;;;;;;;12.73;11.40;;;;;;;20.67;100.00;92913.94;5053524;28;20234;-79
2023/06/25 00:20:20;;;;;;;12.20;10.93;;;;;;;20.59;100.00;92914.06;5053097;28;20235;-78
2023/06/25 00:22:46;;;;;;;12.43;11.20;;;;;;;20.67;100.00;92919.25;5054638;28;20220;-78
2023/06/25 00:25:14;;;;;;;11.20;10.30;;;;;;;20.50;100.00;92908.84;5064460;28;20232;-78
2023/06/25 00:27:40;;;;;;;13.80;12.33;;;;;;;20.64;100.00;92917.25;5054414;28;20242;-78
2023/06/25 00:30:07;;;;;;;12.00;10.90;;;;;;;20.76;100.00;92921.00;5053815;28;20237;-78
2023/06/25 00:32:33;;;;;;;11.43;10.43;;;;;;;20.33;100.00;92903.75;5053422;28;20220;-78
2023/06/25 00:35:00;;;;;;;12.23;11.23;;;;;;;19.90;100.00;92910.63;5053274;28;20236;-77
2023/06/25 00:37:26;;;;;;;11.53;10.63;;;;;;;19.88;100.00;92913.59;5054694;28;20172;-77
2023/06/25 00:39:51;;;;;;;11.60;10.60;;;;;;;20.05;100.00;92900.16;5052066;28;20251;-77
2023/06/25 00:42:17;;;;;;;12.63;11.53;;;;;;;20.00;100.00;92897.72;5052474;28;20199;-78
2023/06/25 00:44:43;;;;;;;11.43;10.43;;;;;;;20.37;100.00;92890.63;5054134;28;20293;-78
2023/06/25 00:47:12;;;;;;;12.40;11.17;;;;;;;20.56;100.00;92891.59;5053755;28;20180;-78
2023/06/25 00:49:45;;;;;;;11.23;10.33;;;;;;;20.55;100.00;92890.06;5053193;28;20232;-78
2023/06/25 00:52:12;;;;;;;11.50;10.50;;;;;;;20.47;100.00;92887.50;5053178;28;20188;-78
2023/06/25 00:54:39;;;;;;;11.90;10.60;;;;;;;20.35;100.00;92876.91;5058996;28;20257;-78
2023/06/25 00:57:06;;;;;;;11.50;10.60;;;;;;;20.31;100.00;92884.75;5053723;28;20199;-78
2023/06/25 00:59:35;;;;;;;10.83;10.00;;;;;;;20.41;100.00;92891.50;5046715;28;20236;-77
2023/06/25 01:02:11;;;;;;;11.40;10.40;;;;;;;19.93;100.00;92878.94;5052921;28;20231;-78
2023/06/25 01:04:46;;;;;;;10.27;9.50;;;;;;;19.77;100.00;92891.28;5054055;28;20283;-78
2023/06/25 01:07:17;;;;;;;10.83;9.93;;;;;;;20.02;100.00;92886.78;5052376;28;20192;-77
2023/06/25 01:09:50;;;;;;;11.97;10.33;;;;;;;19.52;100.00;92888.88;5053083;28;20224;-78
2023/06/25 01:12:15;;;;;;;11.43;10.40;;;;;;;19.98;100.00;92875.31;5053471;28;20183;-78
2023/06/25 01:14:40;;;;;;;11.27;10.33;;;;;;;20.22;100.00;92881.44;5052097;28;20244;-77
2023/06/25 01:17:07;;;;;;;10.40;9.60;;;;;;;19.90;100.00;92882.25;5053274;28;20193;-78
2023/06/25 01:19:33;;;;;;;11.33;10.50;;;;;;;20.12;100.00;92895.09;5051123;28;20247;-78
2023/06/25 01:22:02;;;;;;;10.93;10.13;;;;;;;20.32;100.00;92896.91;5051658;28;20217;-77
2023/06/25 01:24:28;;;;;;;10.47;9.37;;;;;;;20.44;100.00;92898.78;5052189;28;20326;-78
2023/06/25 01:26:59;;;;;;;11.17;10.17;;;;;;;20.53;100.00;92908.19;5051376;28;20192;-78
2023/06/25 01:29:26;;;;;;;10.07;9.27;;;;;;;20.49;100.00;92901.22;5052291;28;20287;-78
2023/06/25 01:31:52;;;;;;;12.53;11.37;;;;;;;20.56;100.00;92907.53;5052334;28;20243;-78
2023/06/25 01:34:21;;;;;;;11.53;10.43;;;;;;;20.54;100.00;92906.31;5051690;28;20195;-77
2023/06/25 01:36:49;;;;;;;12.07;10.87;;;;;;;20.49;100.00;92911.84;5049803;28;20193;-73
2023/06/25 01:39:16;;;;;;;12.40;11.17;;;;;;;20.40;100.00;92901.34;5052018;28;20219;-73
2023/06/25 01:41:46;;;;;;;11.70;10.57;;;;;;;20.44;100.00;92909.41;5052438;28;20199;-73
2023/06/25 01:44:15;;;;;;;11.40;10.40;;;;;;;20.41;100.00;92916.16;5051603;28;20224;-74
2023/06/25 01:46:41;;;;;;;11.57;10.53;;;;;;;20.03;100.00;92912.97;5052611;28;20226;-74
2023/06/25 01:49:07;;;;;;;12.33;10.50;;;;;;;19.89;100.00;92915.13;5051597;28;20192;-74
2023/06/25 01:51:32;;;;;;;12.57;11.37;;;;;;;20.15;100.00;92917.56;5050798;28;20422;-74
2023/06/25 01:53:58;;;;;;;11.33;10.43;;;;;;;20.06;100.00;92917.59;5051763;28;20188;-73
2023/06/25 01:56:24;;;;;;;12.23;11.07;;;;;;;19.97;100.00;92906.34;5050279;28;20284;-73
2023/06/25 01:58:53;;;;;;;11.53;10.63;;;;;;;20.02;100.00;92902.69;5051904;28;20287;-74
2023/06/25 02:01:20;;;;;;;12.53;11.53;;;;;;;20.12;100.00;92907.59;5051158;28;20267;-74
2023/06/25 02:03:45;;;;;;;11.40;10.50;;;;;;;20.10;100.00;92917.72;5065896;28;20216;-73
2023/06/25 02:06:11;;;;;;;13.17;11.87;;;;;;;20.16;100.00;92919.88;5053808;28;20220;-73
2023/06/25 02:08:36;;;;;;;10.47;9.57;;;;;;;19.96;100.00;92912.75;5058470;28;20230;-74
2023/06/25 02:11:01;;;;;;;12.13;10.80;;;;;;;19.67;100.00;92915.53;5058618;28;20231;-74
2023/06/25 02:13:27;;;;;;;13.07;11.50;;;;;;;19.58;100.00;92922.78;5044407;28;20209;-74
2023/06/25 02:15:52;;;;;;;12.73;10.43;;;;;;;19.57;100.00;92913.28;5051597;28;20228;-73
2023/06/25 02:18:17;;;;;;;12.60;11.40;;;;;;;19.83;100.00;92921.75;5051235;28;20975;-73
2023/06/25 02:20:43;;;;;;;12.33;11.20;;;;;;;19.86;100.00;92918.44;5050760;28;20240;-73
2023/06/25 02:23:08;;;;;;;13.00;11.00;;;;;;;19.72;100.00;92904.72;5051149;28;20216;-73
2023/06/25 02:25:33;;;;;;;12.47;11.13;;;;;;;19.71;100.00;92919.06;5051060;28;20299;-73
2023/06/25 02:27:59;;;;;;;16.60;11.07;;;;;;;19.50;100.00;92923.66;5051702;28;20195;-74
2023/06/25 02:30:24;;;;;;;12.10;10.97;;;;;;;19.52;100.00;92923.31;5051484;28;20239;-74
2023/06/25 02:32:49;;;;;;;12.17;11.07;;;;;;;19.50;100.00;92897.16;5052143;28;20186;-75
2023/06/25 02:35:15;;;;;;;14.00;11.73;;;;;;;19.53;100.00;92893.88;5051385;28;20247;-74
2023/06/25 02:37:40;;;;;;;12.83;11.63;;;;;;;19.66;100.00;92915.88;5051129;28;20223;-74
2023/06/25 02:40:06;;;;;;;12.60;11.43;;;;;;;19.74;100.00;92918.41;5051060;28;20362;-73
2023/06/25 02:42:31;;;;;;;14.87;11.80;;;;;;;19.59;100.00;92911.09;5083318;28;20176;-74
2023/06/25 02:44:57;;;;;;;16.80;11.80;;;;;;;19.53;100.00;92919.56;5072157;28;20227;-73
2023/06/25 02:47:22;;;;;;;13.17;11.83;;;;;;;19.80;100.00;92914.47;5050444;28;20782;-74
2023/06/25 02:49:48;;;;;;;11.90;10.70;;;;;;;19.62;100.00;92923.69;5051067;28;20231;-74
2023/06/25 02:52:13;;;;;;;13.57;11.27;;;;;;;19.55;100.00;92923.44;5050894;28;20200;-73
2023/06/25 02:54:38;;;;;;;11.87;10.70;;;;;;;19.67;100.00;92915.53;5059228;28;20231;-74
2023/06/25 02:57:04;;;;;;;12.80;11.30;;;;;;;19.75;100.00;92925.25;5051420;28;20225;-74
2023/06/25 02:59:29;;;;;;;13.00;11.80;;;;;;;19.47;100.00;92918.97;5050726;28;20226;-74
2023/06/25 03:01:54;;;;;;;13.30;12.03;;;;;;;19.54;100.00;92924.53;5050181;28;20208;-77
2023/06/25 03:04:20;;;;;;;17.43;12.97;;;;;;;19.57;100.00;92925.75;5050095;28;20218;-79
2023/06/25 03:06:45;;;;;;;13.10;11.93;;;;;;;19.65;100.00;92936.28;5049954;28;20197;-78
2023/06/25 03:09:11;;;;;;;13.37;12.17;;;;;;;19.59;100.00;92927.00;5050732;28;20195;-79
2023/06/25 03:11:36;;;;;;;14.80;13.23;;;;;;;19.75;100.00;92908.59;5053211;28;20217;-79
2023/06/25 03:14:02;;;;;;;13.97;12.50;;;;;;;19.95;100.00;92919.16;5051912;28;20189;-79
2023/06/25 03:16:27;;;;;;;15.30;12.57;;;;;;;19.74;100.00;92922.94;5050133;28;20215;-80
2023/06/25 03:18:52;;;;;;;16.67;13.47;;;;;;;19.96;100.00;92899.50;5050371;28;20204;-79
2023/06/25 03:21:18;;;;;;;14.33;11.83;;;;;;;20.11;100.00;92925.34;5050439;28;20231;-79
2023/06/25 03:23:43;;;;;;;13.80;12.50;;;;;;;19.63;100.00;92927.09;5058748;28;20250;-82
2023/06/25 03:26:09;;;;;;;16.80;13.30;;;;;;;19.79;100.00;92926.16;5049747;28;20231;-80
2023/06/25 03:28:35;;;;;;;14.33;13.03;;;;;;;19.69;100.00;92926.56;5050726;28;20303;-78
2023/06/25 03:31:01;;;;;;;16.03;13.10;;;;;;;19.77;100.00;92933.66;5050121;28;20244;-78
2023/06/25 03:33:26;;;;;;;16.97;14.23;;;;;;;19.85;100.00;92930.16;5050272;28;20220;-78
2023/06/25 03:35:51;;;;;;;16.67;12.43;;;;;;;19.94;100.00;92920.25;5051002;28;20262;-78
2023/06/25 03:38:17;;;;;;;15.27;13.20;;;;;;;19.89;100.00;92925.75;5051497;28;20195;-78
2023/06/25 03:40:42;;;;;;;14.90;13.07;;;;;;;19.97;100.00;92927.53;5049411;28;20231;-78
2023/06/25 03:43:07;;;;;;;16.27;13.73;;;;;;;20.01;100.00;92919.72;5050625;28;20269;-80
2023/06/25 03:45:33;;;;;;;17.90;13.20;;;;;;;20.13;100.00;92930.31;5049535;28;20254;-78
2023/06/25 03:47:58;;;;;;;14.37;12.87;;;;;;;19.82;100.00;92883.13;5051328;28;20204;-78
2023/06/25 03:50:24;;;;;;;15.97;12.80;;;;;;;19.93;100.00;92912.63;5050815;28;20253;-79
2023/06/25 03:52:49;;;;;;;16.07;13.00;;;;;;;20.06;100.00;92917.59;5049485;28;20185;-79
2023/06/25 03:55:14;;;;;;;15.00;13.03;;;;;;;20.10;100.00;92921.16;5056435;28;20237;-79
2023/06/25 03:57:40;;;;;;;21.13;14.43;;;;;;;20.04;100.00;92913.75;5051130;28;20204;-79
2023/06/25 04:00:06;;;;;;;20.50;13.50;;;;;;;20.03;100.00;92912.97;5050791;28;20223;-79
2023/06/25 04:02:31;;;;;;;15.37;13.60;;;;;;;19.91;100.00;92907.66;5049494;28;20187;-79
2023/06/25 04:04:56;;;;;;;19.53;13.57;;;;;;;19.99;100.00;92901.47;5048730;28;20323;-80
2023/06/25 04:07:22;;;;;;;15.87;14.07;;;;;;;20.01;100.00;92906.47;5055362;28;20188;-79
2023/06/25 04:09:47;;;;;;;19.30;12.73;;;;;;;19.76;100.00;92900.34;5048878;28;20228;-81
2023/06/25 04:12:13;;;;;;;21.10;14.03;;;;;;;19.75;100.00;92901.41;5055300;28;20197;-81
2023/06/25 04:14:38;;;;;;;17.73;14.90;;;;;;;19.79;100.00;92875.81;5083641;28;20232;-80
2023/06/25 04:17:04;;;;;;;19.80;14.03;;;;;;;20.05;100.00;92888.78;5060832;28;20202;-81
2023/06/25 04:19:29;;;;;;;16.07;12.90;;;;;;;19.94;100.00;92875.19;5049248;28;20229;-81
2023/06/25 04:21:54;;;;;;;18.37;14.30;;;;;;;20.10;100.00;92889.34;5050012;28;20201;-81
2023/06/25 04:24:20;;;;;;;19.20;14.70;;;;;;;20.10;100.00;92894.66;5048790;28;20213;-81
2023/06/25 04:26:45;;;;;;;16.20;14.50;;;;;;;20.02;100.00;92886.78;5046297;28;20189;-71
2023/06/25 04:29:11;;;;;;;15.00;13.37;;;;;;;19.99;100.00;92888.22;5049612;28;20195;-71
2023/06/25 04:31:36;;;;;;;16.37;12.93;;;;;;;20.04;100.00;92885.38;5046095;28;20192;-71
2023/06/25 04:34:01;;;;;;;16.07;11.80;;;;;;;20.03;100.00;92891.00;5047515;28;20192;-71
2023/06/25 04:36:27;;;;;;;16.77;13.03;;;;;;;19.96;100.00;92883.59;5047889;28;20227;-71
2023/06/25 04:38:52;;;;;;;15.03;13.00;;;;;;;20.11;100.00;92898.09;5048167;28;20246;-71
2023/06/25 04:41:17;;;;;;;15.90;12.70;;;;;;;20.07;100.00;92895.31;5047855;28;20248;-71
2023/06/25 04:43:43;;;;;;;17.37;15.57;;;;;;;20.09;100.00;92887.81;5047302;28;20277;-71
2023/06/25 04:46:08;;;;;;;16.60;12.53;;;;;;;20.08;100.00;92891.56;5048364;28;20266;-71
2023/06/25 04:48:34;;;;;;;14.20;12.70;;;;;;;20.15;100.00;92899.00;5048207;28;20259;-70
2023/06/25 04:50:59;;;;;;;17.33;12.30;;;;;;;20.17;100.00;92899.44;5057737;28;20243;-70
2023/06/25 04:53:24;;;;;;;13.40;12.20;;;;;;;20.02;100.00;92892.88;5047155;28;20189;-70
2023/06/25 04:55:50;;;;;;;14.00;12.73;;;;;;;19.82;100.00;92903.53;5050211;28;20258;-70
2023/06/25 04:58:15;;;;;;;14.93;13.33;;;;;;;19.23;100.00;92902.97;5047297;28;20186;-71
2023/06/25 05:00:41;;;;;;;16.67;13.67;;;;;;;19.14;100.00;92904.91;5047989;28;20223;-70
2023/06/25 05:03:06;;;;;;;16.90;14.63;;;;;;;19.16;100.00;92892.88;5051944;28;20229;-71
2023/06/25 05:05:32;;;;;;;17.07;13.70;;;;;;;19.29;100.00;92885.03;5051063;28;20218;-71
2023/06/25 05:07:58;;;;;;;17.17;13.53;;;;;;;19.54;100.00;92887.47;5052026;28;20196;-71
2023/06/25 05:10:23;;;;;;;14.83;13.13;;;;;;;19.66;100.00;92874.25;5050924;28;20278;-71
2023/06/25 05:12:49;;;;;;;15.10;13.80;;;;;;;19.81;100.00;92873.63;5050331;28;20196;-71
2023/06/25 05:15:15;;;;;;;15.03;13.63;;;;;;;19.84;100.00;92866.88;5050772;28;20256;-68
2023/06/25 05:17:40;;;;;;;15.73;13.83;;;;;;;19.93;100.00;92886.91;5051697;28;20234;-68
2023/06/25 05:20:06;;;;;;;14.57;13.20;;;;;;;19.96;100.00;92862.38;5050609;28;20227;-68
2023/06/25 05:22:31;;;;;;;15.27;13.80;;;;;;;20.07;100.00;92868.81;5051293;28;20222;-73
2023/06/25 05:24:57;;;;;;;13.87;12.40;;;;;;;20.27;100.00;92870.63;5050810;28;20311;-70
2023/06/25 05:27:22;;;;;;;13.93;12.70;;;;;;;20.15;100.00;92875.91;5051222;28;20230;-70
2023/06/25 05:48:10;;;;;;;16.53;14.83;;;;;;;18.69;100.00;92857.13;5141267;27;20565;-77
2023/06/25 05:50:35;;;;;;;16.90;15.20;;;;;;;18.76;100.00;92859.25;5098128;27;20221;-78
2023/06/25 05:53:01;;;;;;;17.53;14.43;;;;;;;19.02;100.00;92873.06;5085360;28;20198;-77
2023/06/25 05:55:26;;;;;;;17.07;15.47;;;;;;;19.29;100.00;92885.03;5083671;28;20234;-80
2023/06/25 05:57:52;;;;;;;18.87;15.57;;;;;;;19.27;100.00;92892.50;5085350;28;20196;-78
2023/06/25 06:00:17;;;;;;;18.00;15.70;;;;;;;19.29;100.00;92895.63;5074039;28;20249;-77
2023/06/25 06:02:43;;;;;;;21.37;15.53;;;;;;;19.40;100.00;92902.06;5058923;28;20247;-77
2023/06/25 06:05:08;;;;;;;18.13;14.90;;;;;;;19.45;100.00;92881.47;5078314;28;20264;-78
2023/06/25 06:07:34;;;;;;;15.87;14.00;;;;;;;19.56;100.00;92885.25;5091180;28;20276;-78
2023/06/25 06:09:59;;;;;;;15.90;14.27;;;;;;;19.39;100.00;92874.03;5089177;28;20261;-78
2023/06/25 06:12:25;;;;;;;18.03;15.23;;;;;;;19.41;100.00;92901.75;5088775;28;20298;-78
2023/06/25 06:14:50;;;;;;;16.30;14.50;;;;;;;19.74;100.00;92909.69;5088002;28;20219;-78
2023/06/25 06:17:16;;;;;;;14.93;13.50;;;;;;;19.74;100.00;92897.22;5090114;28;20205;-78
2023/06/25 06:19:41;;;;;;;15.40;13.75;;;;;;;19.78;100.00;92906.06;5080847;28;20242;-77
2023/06/25 06:22:06;;;;;;;15.93;14.33;;;;;;;19.94;100.00;92891.09;5060774;28;20211;-77
2023/06/25 06:24:32;;;;;;;15.80;14.37;;;;;;;19.94;100.00;92895.59;5067787;28;20759;-78
2023/06/25 06:26:57;;;;;;;15.13;13.63;;;;;;;20.04;100.00;92906.59;5083033;28;21074;-78
2023/06/25 06:29:22;;;;;;;15.20;13.63;;;;;;;20.44;100.00;92909.41;5085786;28;20251;-77
2023/06/25 06:31:48;;;;;;;14.53;12.97;;;;;;;20.74;100.00;92908.06;5083856;28;20257;-78
2023/06/25 06:34:13;;;;;;;14.90;13.33;;;;;;;21.00;100.00;92908.50;5085631;28;20219;-78
2023/06/25 06:36:38;;;;;;;14.30;12.88;;;;;;;21.13;100.00;92914.56;5079556;28;20215;-78
2023/06/25 06:39:04;;;;;;;14.88;13.25;;;;;;;21.48;100.00;92889.78;5084921;28;20184;-78
2023/06/25 06:41:29;;;;;;;15.77;14.17;;;;;;;21.77;100.00;92892.13;5084907;28;20203;-78
2023/06/25 06:44:09;;;;;;;15.57;13.90;;;;;;;21.94;97.60;92906.97;5081125;28;20184;-78
2023/06/25 06:46:35;;;;;;;13.60;12.40;;;;;;;22.34;94.64;92910.28;5083372;28;20264;-78
2023/06/25 06:49:00;;;;;;;13.32;12.07;;;;;;;22.46;96.55;92907.53;5086446;28;20914;-78
2023/06/25 06:51:26;;;;;;;12.63;11.63;;;;;;;22.70;95.17;92907.38;5083077;28;20253;-78
2023/06/25 06:53:51;;;;;;;13.65;12.27;;;;;;;23.08;93.66;92914.69;5082677;28;20191;-78
2023/06/25 06:56:16;;;;;;;12.13;11.02;;;;;;;23.16;93.30;92887.09;5082477;28;20219;-78
2023/06/25 06:58:42;;;;;;;12.30;10.73;;;;;;;23.36;92.71;92907.34;5072170;28;20210;-76
2023/06/25 07:01:07;;;;;;;13.38;12.30;;;;;;;22.93;93.81;92897.63;5071176;28;20223;-68
2023/06/25 07:03:32;;;;;;;11.63;10.73;;;;;;;23.05;91.64;92888.75;5069290;28;20226;-69
2023/06/25 07:05:58;;;;;;;11.32;10.32;;;;;;;23.55;86.78;92894.00;5070205;28;20219;-70
2023/06/25 07:08:23;;;;;;;11.77;10.75;;;;;;;23.38;88.38;92886.41;5067339;28;20246;-69
2023/06/25 07:10:49;;;;;;;11.38;10.57;;;;;;;23.51;87.35;92888.63;5067538;28;20223;-69
2023/06/25 07:13:14;;;;;;;11.43;10.63;;;;;;;23.02;85.04;92881.47;5070332;28;20247;-69
2023/06/25 07:15:39;;;;;;;11.32;10.43;;;;;;;22.99;90.31;92884.84;5065722;28;20231;-69
2023/06/25 07:18:06;;;;;;;11.18;10.38;;;;;;;23.36;86.95;92889.44;5070712;28;20198;-72
2023/06/25 07:20:31;;;;;;;12.10;11.00;;;;;;;23.48;83.52;92893.88;5064403;28;20222;-71
2023/06/25 07:22:56;;;;;;;11.88;11.07;;;;;;;23.24;88.23;92897.53;5068368;28;20191;-70
2023/06/25 07:25:22;;;;;;;11.48;10.68;;;;;;;23.40;84.27;92898.28;5068110;28;20236;-70
2023/06/25 07:27:47;;;;;;;11.30;10.50;;;;;;;23.72;88.84;92891.69;5066880;28;20226;-69
2023/06/25 07:30:13;;;;;;;10.77;10.07;;;;;;;24.06;81.92;92907.97;5067874;28;20228;-70
2023/06/25 07:32:38;;;;;;;11.48;10.52;;;;;;;24.37;84.48;92905.06;5065619;28;20196;-69
2023/06/25 07:35:04;;;;;;;10.65;9.93;;;;;;;24.95;80.88;92911.75;5061927;28;20766;-69
2023/06/25 07:37:29;;;;;;;10.90;10.10;;;;;;;24.77;74.33;92910.72;5067489;28;20187;-70
2023/06/25 07:39:55;;;;;;;9.73;9.05;;;;;;;24.48;78.73;92911.38;5062827;28;20241;-70
2023/06/25 07:42:20;;;;;;;10.25;9.57;;;;;;;23.93;77.08;92903.88;5071138;28;20201;-71
2023/06/25 07:44:45;;;;;;;10.20;9.50;;;;;;;24.16;80.81;92907.34;5061429;28;20234;-70
2023/06/25 07:47:11;;;;;;;11.77;10.88;;;;;;;23.77;81.21;92902.06;5067471;28;20235;-70
2023/06/25 07:49:36;;;;;;;10.00;9.40;;;;;;;24.09;79.45;92907.25;5069929;28;20240;-71
2023/06/25 07:52:03;;;;;;;10.52;9.82;;;;;;;24.59;78.42;92902.38;5067247;28;20200;-71
2023/06/25 07:54:28;;;;;;;10.52;9.82;;;;;;;23.92;74.24;92903.13;5069683;28;20295;-70
2023/06/25 07:56:54;;;;;;;10.40;9.73;;;;;;;23.53;77.90;92906.94;5069932;28;20193;-71
2023/06/25 07:59:19;;;;;;;10.55;9.68;;;;;;;23.13;77.33;92898.44;5068881;28;20195;-72
2023/06/25 08:01:45;;;;;;;11.52;10.57;;;;;;;22.90;85.04;92892.22;5069534;28;20188;-71
2023/06/25 08:04:10;;;;;;;11.60;10.60;;;;;;;23.14;85.80;92897.31;5068878;28;20193;-71
2023/06/25 08:06:35;;;;;;;10.27;9.45;;;;;;;22.91;85.39;92886.53;5069808;28;20275;-70
2023/06/25 08:09:01;;;;;;;11.32;10.27;;;;;;;22.81;83.08;92892.41;5069458;28;20203;-71
2023/06/25 08:11:26;;;;;;;11.32;10.43;;;;;;;22.71;83.44;92887.63;5066236;28;20224;-71
2023/06/25 08:13:52;;;;;;;11.35;10.35;;;;;;;22.74;85.04;92881.59;5070077;28;20222;-71
2023/06/25 08:16:17;;;;;;;12.13;11.13;;;;;;;22.43;87.16;92886.16;5064157;28;20314;-70
2023/06/25 08:18:43;;;;;;;13.45;12.35;;;;;;;21.80;91.30;92872.84;5065782;28;20195;-72
2023/06/25 08:21:09;;;;;;;13.70;12.50;;;;;;;21.81;92.48;92873.59;5052616;28;20225;-73
2023/06/25 08:23:34;;;;;;;13.95;12.68;;;;;;;22.04;91.13;92887.84;5049212;28;20201;-73
2023/06/25 08:26:00;;;;;;;15.32;12.25;;;;;;;21.90;91.93;92895.47;5068007;28;20239;-73
2023/06/25 08:28:25;;;;;;;13.57;12.43;;;;;;;21.91;92.54;92894.38;5070571;28;20244;-73
2023/06/25 08:30:50;;;;;;;14.32;13.10;;;;;;;21.77;94.83;92886.81;5064611;28;20239;-73
2023/06/25 08:33:16;;;;;;;13.13;11.65;;;;;;;21.22;99.36;92891.31;5067221;28;20184;-72
2023/06/25 08:35:41;;;;;;;13.05;11.80;;;;;;;21.03;98.97;92867.25;5066902;28;20238;-70
2023/06/25 08:38:08;;;;;;;12.82;11.73;;;;;;;20.76;100.00;92879.34;5063931;28;20194;-68
2023/06/25 08:40:35;;;;;;;12.35;11.20;;;;;;;20.86;100.00;92878.84;5060664;28;20356;-72
2023/06/25 08:43:01;;;;;;;13.80;12.43;;;;;;;21.37;97.29;92896.66;5061073;28;20203;-71
2023/06/25 08:45:26;;;;;;;13.93;12.80;;;;;;;21.33;97.93;92889.72;5064964;28;20228;-71
2023/06/25 08:47:56;;;;;;;14.00;12.65;;;;;;;21.40;98.17;92897.91;5063491;28;20230;-72
2023/06/25 08:50:23;;;;;;;14.77;13.38;;;;;;;20.89;100.00;92877.44;5061147;28;20222;-71
2023/06/25 08:52:50;;;;;;;14.77;13.35;;;;;;;21.10;99.92;92873.53;5062890;28;20218;-72
2023/06/25 08:55:18;;;;;;;13.23;11.80;;;;;;;21.84;95.09;92888.84;5061304;28;20219;-71
2023/06/25 08:57:43;;;;;;;15.23;13.50;;;;;;;22.65;91.94;92894.31;5065995;28;20234;-73
2023/06/25 09:00:09;;;;;;;14.60;13.10;;;;;;;22.27;90.31;92888.84;5067262;28;20246;-70
2023/06/25 09:02:35;;;;;;;14.77;13.40;;;;;;;22.73;86.41;92882.72;5065104;28;20187;-71
2023/06/25 09:05:08;;;;;;;16.55;13.93;;;;;;;22.72;87.39;92883.84;5064997;28;20300;-71
2023/06/25 09:07:35;;;;;;;14.07;12.70;;;;;;;24.17;84.33;92887.56;5063687;28;20214;-72
2023/06/25 09:10:01;;;;;;;14.15;12.85;;;;;;;24.48;81.17;92876.66;5064793;28;20224;-70
2023/06/25 09:12:26;;;;;;;15.25;13.63;;;;;;;24.64;79.69;92887.97;5065149;28;20195;-70
2023/06/25 09:14:52;;;;;;;14.98;13.23;;;;;;;24.21;83.53;92883.84;5065757;28;20240;-71
2023/06/25 09:17:21;;;;;;;13.18;12.07;;;;;;;25.26;76.39;92884.72;5060529;28;20231;-71
2023/06/25 09:19:47;;;;;;;13.32;12.20;;;;;;;24.85;77.22;92874.97;5065162;28;20232;-72
2023/06/25 09:22:12;;;;;;;13.68;12.48;;;;;;;25.10;76.59;92876.09;5065922;28;20189;-71
2023/06/25 09:24:42;;;;;;;13.63;12.32;;;;;;;24.63;78.69;92878.41;5064125;28;20238;-71
2023/06/25 09:27:10;;;;;;;13.43;12.23;;;;;;;24.33;81.07;92874.91;5067869;28;20208;-70
2023/06/25 09:29:36;;;;;;;12.23;11.23;;;;;;;24.57;77.22;92859.25;5065407;28;20232;-72
2023/06/25 09:32:09;;;;;;;12.20;11.20;;;;;;;24.03;76.88;92871.31;5063218;28;20267;-72
2023/06/25 09:34:36;;;;;;;11.43;10.32;;;;;;;24.70;74.88;92865.22;5064083;28;20251;-73
2023/06/25 09:37:02;;;;;;;10.90;9.93;;;;;;;24.56;76.46;92860.38;5065418;28;20445;-73
2023/06/25 09:39:29;;;;;;;12.07;11.07;;;;;;;24.38;73.86;92866.56;5064491;28;20297;-72
2023/06/25 09:41:55;;;;;;;11.77;10.70;;;;;;;24.55;73.36;92842.81;5063346;28;20190;-71
2023/06/25 09:44:21;;;;;;;11.98;10.93;;;;;;;25.12;73.09;92857.78;5059268;28;20202;-73
2023/06/25 09:46:47;;;;;;;11.52;10.50;;;;;;;25.50;71.38;92862.88;5066455;28;20271;-72
2023/06/25 09:49:15;;;;;;;10.18;9.55;;;;;;;25.60;69.66;92864.13;5065188;28;20184;-72
2023/06/25 09:51:48;;;;;;;10.63;9.95;;;;;;;25.05;71.40;92855.00;5064140;28;20195;-72
2023/06/25 09:54:16;;;;;;;10.95;10.15;;;;;;;24.62;73.25;92848.25;5064568;28;20208;-72
2023/06/25 09:56:43;;;;;;;10.82;10.02;;;;;;;24.15;75.80;92853.25;5061784;28;20192;-71
2023/06/25 09:59:09;;;;;;;11.10;10.20;;;;;;;24.80;73.64;92848.56;5058176;28;20212;-69
2023/06/25 10:01:36;;;;;;;10.73;9.88;;;;;;;25.05;73.17;92849.66;5066092;28;20188;-69
2023/06/25 10:04:01;;;;;;;10.43;9.73;;;;;;;25.55;70.33;92843.84;5064894;28;20207;-70
2023/06/25 10:06:27;;;;;;;11.35;10.55;;;;;;;25.15;74.73;92849.06;5063760;28;20241;-70
2023/06/25 10:08:54;;;;;;;10.55;9.80;;;;;;;25.50;69.16;92846.84;5063914;28;20192;-70
2023/06/25 10:11:20;;;;;;;10.88;10.07;;;;;;;24.59;77.05;92845.56;5064224;28;20226;-69
2023/06/25 10:13:45;;;;;;;10.18;9.38;;;;;;;24.68;73.00;92828.19;5064327;28;20196;-70
2023/06/25 10:16:17;;;;;;;12.20;11.10;;;;;;;24.34;75.82;92833.72;5062947;28;20255;-69
2023/06/25 10:18:43;;;;;;;10.15;9.43;;;;;;;24.25;75.98;92825.19;5067495;28;20193;-67
2023/06/25 10:21:18;;;;;;;11.00;10.20;;;;;;;24.63;72.86;92825.00;5065516;28;20234;-69
2023/06/25 10:23:53;;;;;;;10.93;10.13;;;;;;;24.58;73.65;92818.06;5060719;28;20222;-70
2023/06/25 10:26:19;;;;;;;11.43;10.35;;;;;;;24.90;73.25;92823.91;5064856;28;20903;-69
2023/06/25 10:28:50;;;;;;;10.88;10.07;;;;;;;24.58;75.55;92814.63;5058620;28;20190;-69
2023/06/25 10:31:16;;;;;;;10.10;9.43;;;;;;;24.98;71.79;92809.50;5062335;28;20229;-70
2023/06/25 10:33:45;;;;;;;10.07;9.38;;;;;;;24.92;72.48;92816.28;5064953;28;20181;-69
2023/06/25 10:36:11;;;;;;;10.93;10.13;;;;;;;24.12;77.14;92808.59;5068122;28;20246;-68
2023/06/25 10:38:37;;;;;;;11.32;10.30;;;;;;;23.98;78.17;92804.91;5062620;28;20177;-69
2023/06/25 10:41:03;;;;;;;9.77;9.07;;;;;;;23.86;77.86;92802.41;5060945;28;20227;-69
2023/06/25 10:43:28;;;;;;;10.95;10.15;;;;;;;24.10;73.63;92802.84;5068742;28;20191;-69
2023/06/25 10:45:56;;;;;;;10.60;9.80;;;;;;;23.71;76.83;92796.81;5054986;28;20225;-69
2023/06/25 10:48:23;;;;;;;10.82;10.07;;;;;;;23.87;76.72;92771.94;5068241;28;20208;-68
2023/06/25 10:50:50;;;;;;;10.25;9.43;;;;;;;24.03;79.66;92788.63;5070444;28;20233;-69
2023/06/25 10:53:17;;;;;;;10.85;9.95;;;;;;;24.38;77.10;92776.59;5069024;28;20218;-69
2023/06/25 10:55:44;;;;;;;10.13;9.43;;;;;;;24.76;73.65;92786.31;5071225;28;20225;-68
2023/06/25 10:58:13;;;;;;;10.32;9.40;;;;;;;24.47;72.86;92779.00;5070272;28;20231;-70
2023/06/25 11:00:38;;;;;;;10.15;9.32;;;;;;;24.24;73.20;92778.28;5071210;28;20227;-69
2023/06/25 11:03:03;;;;;;;11.88;10.88;;;;;;;24.54;75.29;92774.53;5067332;28;20260;-69
2023/06/25 11:05:47;;;;;;;10.68;9.93;;;;;;;23.84;73.43;92756.66;5061674;28;20254;-69
2023/06/25 11:08:13;;;;;;;11.18;10.38;;;;;;;23.80;75.30;92755.81;5065069;28;20226;-68
2023/06/25 11:10:40;;;;;;;11.70;10.57;;;;;;;24.21;77.20;92754.97;5066404;28;20315;-69
2023/06/25 11:13:12;;;;;;;10.30;9.40;;;;;;;24.66;75.42;92755.66;5071036;28;20221;-68
2023/06/25 11:15:40;;;;;;;11.90;10.88;;;;;;;24.88;73.58;92751.34;5069293;28;20249;-68
2023/06/25 11:18:07;;;;;;;10.13;9.43;;;;;;;24.96;72.89;92750.31;5069444;28;20898;-69
2023/06/25 11:20:33;;;;;;;10.43;9.43;;;;;;;24.71;71.91;92752.69;5066392;28;20216;-70
2023/06/25 11:22:59;;;;;;;9.93;9.23;;;;;;;24.45;75.18;92747.31;5069428;28;20238;-71
2023/06/25 11:25:25;;;;;;;10.90;9.93;;;;;;;24.94;73.55;92755.25;5070543;28;20236;-69
2023/06/25 11:28:02;;;;;;;11.07;10.13;;;;;;;24.72;72.43;92746.19;5068228;28;20249;-69